Time;durP1;ratioP1;P1;durP2;ratioP2;P2;SDS_P1;SDS_P2;PMS_P1;PMS_P2;Temp;Humidity;BMP_temperature;BMP_pressure;BME280_temperature;BME280_humidity;BME280_pressure;Samples;Min_cycle;Max_cycle;Signal;HPM_P1;HPM_P2
2022/12/27 12:32:28;;;;;;;5.28;4.35;;;;;;;;;;6057284;23;20033;-89
2022/12/27 12:35:16;;;;;;;5.93;4.82;;;;;;;;;;6007614;23;20090;-91
2022/12/27 12:37:51;;;;;;;6.63;4.30;;;;;;;;;;6059284;23;20014;-90
2022/12/27 12:40:32;;;;;;;6.22;3.53;;;;;;;;;;6048257;23;20011;-90
2022/12/27 12:43:06;;;;;;;5.13;4.25;;;;;;;;;;6046044;23;20007;-90
2022/12/27 17:18:02;;;;;;;9.90;6.45;;;;;;;;;;6067086;23;20068;-94
2022/12/27 17:20:29;;;;;;;9.50;7.18;;;;;;;;;;6069365;23;20021;-93
2022/12/27 17:22:56;;;;;;;12.25;8.18;;;;;;;;;;6042503;23;20453;-88
2022/12/27 17:25:32;;;;;;;11.45;7.03;;;;;;;;;;6023393;23;20003;-94
2022/12/27 17:28:03;;;;;;;12.52;8.05;;;;;;;;;;6017043;23;20335;-90
2022/12/27 17:30:45;;;;;;;14.30;9.05;;;;;;;;;;6016709;23;20316;-90
2022/12/27 17:33:31;;;;;;;10.30;7.25;;;;;;;;;;6041965;23;20067;-90
2022/12/27 17:36:01;;;;;;;11.50;8.45;;;;;;;;;;6011152;23;20438;-90
2022/12/27 17:39:08;;;;;;;18.52;11.02;;;;;;;;;;6013186;23;20007;-89
2022/12/27 17:44:49;;;;;;;29.33;13.65;;;;;;;;;;6013037;23;20026;-91
2022/12/27 17:47:39;;;;;;;16.42;10.55;;;;;;;;;;6012149;23;20019;-93
2022/12/27 17:50:13;;;;;;;16.00;9.32;;;;;;;;;;6019856;23;20014;-91
2022/12/27 17:58:12;;;;;;;15.68;9.18;;;;;;;;;;6013016;23;20083;-91
2022/12/27 18:00:43;;;;;;;33.30;20.95;;;;;;;;;;6011808;23;20014;-91
2022/12/27 18:03:12;;;;;;;34.10;21.63;;;;;;;;;;6011900;23;20042;-91
2022/12/27 18:05:40;;;;;;;41.90;22.50;;;;;;;;;;6013214;23;20063;-91
2022/12/27 18:08:26;;;;;;;20.15;11.38;;;;;;;;;;6011986;23;20008;-91
2022/12/27 18:10:52;;;;;;;17.85;10.82;;;;;;;;;;6011930;23;20432;-91
2022/12/27 18:13:21;;;;;;;15.25;10.25;;;;;;;;;;6011980;23;20015;-92
2022/12/27 18:15:48;;;;;;;17.00;11.43;;;;;;;;;;6017689;23;20323;-96
2022/12/27 18:18:28;;;;;;;13.88;9.68;;;;;;;;;;6012668;23;20016;-94
2022/12/27 18:20:59;;;;;;;20.88;12.07;;;;;;;;;;6012021;23;20048;-93
2022/12/27 18:23:26;;;;;;;17.40;11.48;;;;;;;;;;6013317;23;20012;-95
2022/12/27 18:26:05;;;;;;;18.90;11.65;;;;;;;;;;6011915;23;20022;-95
2022/12/27 18:28:33;;;;;;;21.35;13.45;;;;;;;;;;6012962;23;20012;-92
2022/12/27 18:31:12;;;;;;;17.92;12.32;;;;;;;;;;6012789;23;20058;-94
2022/12/27 18:33:56;;;;;;;18.48;12.95;;;;;;;;;;6014032;23;20011;-96
2022/12/27 18:36:27;;;;;;;16.20;11.07;;;;;;;;;;6013378;23;20404;-94
2022/12/27 18:39:01;;;;;;;15.02;10.63;;;;;;;;;;6013749;23;20011;-93
2022/12/27 18:41:32;;;;;;;17.35;10.82;;;;;;;;;;6015695;23;20008;-96
2022/12/27 18:44:00;;;;;;;16.67;11.27;;;;;;;;;;6021200;23;20152;-95
2022/12/27 18:46:31;;;;;;;16.08;10.43;;;;;;;;;;6014157;23;20019;-96
2022/12/27 18:48:58;;;;;;;16.90;10.85;;;;;;;;;;6012953;23;20015;-95
2022/12/27 18:51:37;;;;;;;15.02;10.02;;;;;;;;;;6012482;23;20016;-94
2022/12/27 18:54:32;;;;;;;16.83;10.70;;;;;;;;;;6012026;23;20323;-93
2022/12/27 18:57:01;;;;;;;15.52;10.18;;;;;;;;;;6013079;23;20036;-93
2022/12/27 18:59:32;;;;;;;14.48;9.63;;;;;;;;;;6012436;23;20007;-96
2022/12/27 19:02:00;;;;;;;14.45;10.75;;;;;;;;;;6011943;23;20016;-93
2022/12/27 19:04:30;;;;;;;19.92;12.30;;;;;;;;;;6011983;23;20000;-94
2022/12/27 19:07:13;;;;;;;23.27;15.57;;;;;;;;;;6013788;23;20331;-94
2022/12/27 19:09:49;;;;;;;22.63;15.02;;;;;;;;;;6015564;23;20035;-93
2022/12/27 19:12:25;;;;;;;21.27;13.95;;;;;;;;;;6012327;23;20332;-94
2022/12/27 19:14:52;;;;;;;17.30;12.65;;;;;;;;;;6012437;23;20016;-94
2022/12/27 19:17:24;;;;;;;22.45;13.27;;;;;;;;;;6013161;23;20010;-90
2022/12/27 19:19:52;;;;;;;20.35;14.18;;;;;;;;;;6016323;23;20098;-94
2022/12/27 19:22:28;;;;;;;28.65;18.55;;;;;;;;;;6016238;23;20007;-95
2022/12/27 19:25:05;;;;;;;23.23;15.35;;;;;;;;;;6015872;23;20015;-93
2022/12/27 19:27:30;;;;;;;17.52;11.80;;;;;;;;;;6016452;23;20036;-91
2022/12/27 19:29:56;;;;;;;18.15;11.80;;;;;;;;;;6016110;23;20004;-95
2022/12/27 19:32:30;;;;;;;16.85;12.15;;;;;;;;;;6016105;23;20332;-94
2022/12/27 19:34:58;;;;;;;19.42;13.13;;;;;;;;;;6015907;23;20019;-95
2022/12/27 19:37:25;;;;;;;34.15;23.75;;;;;;;;;;6015932;23;20015;-94
2022/12/27 19:39:51;;;;;;;43.80;34.90;;;;;;;;;;6016558;23;20007;-93
2022/12/27 19:42:29;;;;;;;57.10;40.50;;;;;;;;;;6015677;23;20090;-96
2022/12/27 19:44:56;;;;;;;46.05;28.38;;;;;;;;;;6019487;23;20019;-96
2022/12/27 19:47:22;;;;;;;34.40;21.70;;;;;;;;;;6041520;23;20008;-94
2022/12/27 19:49:48;;;;;;;29.40;20.50;;;;;;;;;;6017487;23;20442;-94
2022/12/27 19:52:20;;;;;;;27.20;19.98;;;;;;;;;;6016700;23;20011;-96
2022/12/27 19:54:47;;;;;;;105.22;55.22;;;;;;;;;;6041007;23;20339;-95
2022/12/27 19:57:13;;;;;;;68.38;46.25;;;;;;;;;;6016023;23;20483;-94
2022/12/27 19:59:38;;;;;;;56.55;36.90;;;;;;;;;;6016272;23;20013;-93
2022/12/27 20:02:04;;;;;;;36.90;24.73;;;;;;;;;;6015974;23;20008;-93
2022/12/27 20:04:29;;;;;;;34.22;23.52;;;;;;;;;;6015816;23;20007;-94
2022/12/27 20:06:54;;;;;;;30.55;21.33;;;;;;;;;;6015904;23;20051;-95
2022/12/27 20:09:20;;;;;;;27.92;20.00;;;;;;;;;;6016195;23;20054;-96
2022/12/27 20:11:47;;;;;;;34.13;21.75;;;;;;;;;;6016201;23;20034;-95
2022/12/27 20:14:13;;;;;;;27.42;18.67;;;;;;;;;;6016244;23;20095;-95
2022/12/27 20:16:39;;;;;;;26.83;18.20;;;;;;;;;;6017688;23;20016;-94
2022/12/27 20:19:05;;;;;;;25.88;17.33;;;;;;;;;;6016002;23;20015;-96
2022/12/27 20:21:30;;;;;;;28.42;18.70;;;;;;;;;;6015804;23;20010;-94
2022/12/27 20:23:56;;;;;;;28.38;19.40;;;;;;;;;;6015910;23;20006;-95
2022/12/27 20:26:24;;;;;;;29.00;19.27;;;;;;;;;;6041257;23;20082;-96
2022/12/27 20:28:50;;;;;;;24.48;18.27;;;;;;;;;;6016246;23;20007;-96
2022/12/27 20:31:19;;;;;;;22.17;16.52;;;;;;;;;;6016610;23;20004;-95
2022/12/27 20:33:52;;;;;;;27.02;18.38;;;;;;;;;;6017509;23;20007;-96
2022/12/27 20:36:18;;;;;;;25.80;18.75;;;;;;;;;;6019573;23;20029;-96
2022/12/27 20:38:43;;;;;;;27.02;18.63;;;;;;;;;;6020057;23;20447;-95
2022/12/27 20:41:11;;;;;;;31.00;19.40;;;;;;;;;;6020582;23;20007;-95
2022/12/27 20:43:40;;;;;;;27.70;18.83;;;;;;;;;;6024587;23;20008;-96
2022/12/27 20:46:07;;;;;;;25.48;19.45;;;;;;;;;;6024129;23;20015;-94
2022/12/27 20:48:36;;;;;;;28.02;19.50;;;;;;;;;;6017896;23;20000;-96
2022/12/27 20:51:11;;;;;;;29.67;20.55;;;;;;;;;;6016534;23;20465;-96
2022/12/27 20:53:36;;;;;;;27.60;19.75;;;;;;;;;;6041496;23;20078;-96
2022/12/27 20:56:03;;;;;;;26.38;18.70;;;;;;;;;;6016634;23;20019;-96
2022/12/27 20:58:30;;;;;;;27.80;19.67;;;;;;;;;;6017676;23;20031;-96
2022/12/27 21:00:56;;;;;;;26.70;19.13;;;;;;;;;;6017771;23;20015;-96
2022/12/27 21:03:21;;;;;;;27.75;18.55;;;;;;;;;;6017766;23;20343;-96
2022/12/27 21:05:50;;;;;;;27.55;18.67;;;;;;;;;;6019693;23;20019;-95
2022/12/27 21:08:16;;;;;;;27.58;18.63;;;;;;;;;;6025407;23;20010;-96
2022/12/27 21:10:51;;;;;;;25.65;18.35;;;;;;;;;;6029633;23;20007;-95
2022/12/27 21:13:19;;;;;;;25.23;17.50;;;;;;;;;;6023793;23;20041;-96
2022/12/27 21:19:06;;;;;;;25.23;17.55;;;;;;;;;;6018293;23;20035;-96
2022/12/27 21:21:34;;;;;;;23.67;16.30;;;;;;;;;;5989612;23;20015;-96
2022/12/27 21:24:00;;;;;;;25.52;15.60;;;;;;;;;;5990084;23;20436;-95
2022/12/27 21:26:28;;;;;;;24.58;15.98;;;;;;;;;;5989277;23;20014;-95
2022/12/27 21:28:54;;;;;;;25.13;16.15;;;;;;;;;;5989266;23;20455;-96
2022/12/27 21:31:20;;;;;;;21.08;15.35;;;;;;;;;;5988858;23;20008;-96
2022/12/27 21:33:46;;;;;;;23.20;16.17;;;;;;;;;;5989221;23;20015;-95
2022/12/27 21:36:14;;;;;;;22.40;15.57;;;;;;;;;;5988969;23;20004;-96
2022/12/27 21:38:40;;;;;;;19.88;14.40;;;;;;;;;;5989175;23;20012;-94
2022/12/27 21:41:18;;;;;;;22.98;15.15;;;;;;;;;;5989030;23;20051;-94
2022/12/27 21:43:45;;;;;;;20.33;13.48;;;;;;;;;;5988709;23;20022;-95
2022/12/27 21:46:27;;;;;;;19.83;13.63;;;;;;;;;;5989305;23;20015;-96
2022/12/27 21:48:56;;;;;;;24.42;14.48;;;;;;;;;;5989305;23;20428;-96
2022/12/27 21:51:22;;;;;;;29.20;18.05;;;;;;;;;;5989137;23;20031;-93
2022/12/27 21:53:48;;;;;;;33.08;18.40;;;;;;;;;;5989141;23;20004;-96
2022/12/27 21:56:14;;;;;;;26.45;17.15;;;;;;;;;;5988923;23;20007;-96
2022/12/27 21:58:41;;;;;;;23.50;16.92;;;;;;;;;;5989075;23;20090;-96
2022/12/27 22:01:21;;;;;;;27.15;17.17;;;;;;;;;;5988977;23;20008;-96
2022/12/27 22:03:48;;;;;;;23.35;15.77;;;;;;;;;;5988885;23;20015;-95
2022/12/27 22:06:18;;;;;;;37.22;20.67;;;;;;;;;;5989000;23;20090;-96
2022/12/27 22:08:44;;;;;;;;;;;;;;;;;;5989185;23;20059;-95
2022/12/27 22:11:11;;;;;;;17.25;11.32;;;;;;;;;;5988898;23;19914;-96
2022/12/27 22:13:37;;;;;;;18.30;12.23;;;;;;;;;;5988830;23;20015;-96
2022/12/27 22:16:05;;;;;;;17.95;12.15;;;;;;;;;;5988806;23;20068;-96
2022/12/27 22:18:33;;;;;;;24.75;16.30;;;;;;;;;;6002425;23;20015;-96
2022/12/27 22:21:01;;;;;;;17.95;11.43;;;;;;;;;;6012129;23;20019;-95
2022/12/27 22:23:31;;;;;;;19.27;13.18;;;;;;;;;;6012059;23;20047;-96
2022/12/27 22:25:56;;;;;;;;;;;;;;;;;;6012284;23;20019;-95
2022/12/27 22:28:22;;;;;;;19.13;12.65;;;;;;;;;;6011989;23;19910;-95
2022/12/27 22:30:47;;;;;;;16.58;11.05;;;;;;;;;;6012184;23;20377;-95
2022/12/27 22:33:14;;;;;;;11.98;8.27;;;;;;;;;;6012426;23;20004;-96
2022/12/27 22:35:39;;;;;;;10.43;7.60;;;;;;;;;;6012175;23;20008;-96
2022/12/27 22:38:05;;;;;;;18.80;12.75;;;;;;;;;;6012352;23;20099;-95
2022/12/27 22:40:31;;;;;;;20.70;13.57;;;;;;;;;;6013350;23;20059;-96
2022/12/27 22:42:57;;;;;;;17.83;12.45;;;;;;;;;;6012364;23;20015;-93
2022/12/27 22:45:22;;;;;;;19.73;13.00;;;;;;;;;;6011984;23;20015;-94
2022/12/27 22:47:48;;;;;;;20.42;13.25;;;;;;;;;;6012274;23;20047;-95
2022/12/27 22:50:13;;;;;;;21.52;13.43;;;;;;;;;;6012645;23;20039;-96
2022/12/27 22:52:39;;;;;;;23.02;14.52;;;;;;;;;;6012940;23;20335;-96
2022/12/27 22:55:05;;;;;;;22.30;14.13;;;;;;;;;;6012714;23;20003;-96
2022/12/27 22:57:30;;;;;;;21.05;13.95;;;;;;;;;;6012210;23;20004;-96
2022/12/27 22:59:55;;;;;;;20.83;13.13;;;;;;;;;;6012091;23;20022;-95
2022/12/27 23:02:21;;;;;;;22.33;13.30;;;;;;;;;;6014531;23;20313;-89
